createdAt,value
2018-03-17T00:02:02.916Z,80.40
2018-03-17T00:04:34.656Z,80.50
2018-03-17T00:07:02.994Z,80.80
2018-03-17T00:09:30.527Z,80.70
2018-03-17T00:11:58.051Z,81.10
2018-03-17T00:14:26.331Z,84.90
2018-03-17T00:16:54.642Z,86.30
2018-03-17T00:19:22.156Z,86.30
2018-03-17T00:21:49.693Z,86.80
2018-03-17T00:24:17.217Z,87.70
2018-03-17T00:26:44.739Z,87.80
2018-03-17T00:29:12.244Z,87.60
2018-03-17T00:31:39.883Z,86.40
2018-03-17T00:34:07.392Z,85.90
2018-03-17T00:36:34.916Z,85.00
2018-03-17T00:39:02.436Z,85.10
2018-03-17T00:41:29.961Z,85.00
2018-03-17T00:43:57.469Z,85.20
2018-03-17T00:46:24.988Z,84.40
2018-03-17T00:48:53.266Z,84.60
2018-03-17T00:51:20.802Z,84.50
2018-03-17T00:53:48.313Z,84.40
2018-03-17T00:56:16.636Z,84.00
2018-03-17T00:58:44.152Z,84.10
2018-03-17T01:01:11.681Z,84.60
2018-03-17T01:03:39.196Z,85.30
2018-03-17T01:06:06.701Z,85.50
2018-03-17T01:08:35.001Z,86.00
2018-03-17T01:11:02.517Z,86.00
2018-03-17T01:13:30.053Z,86.30
2018-03-17T01:15:57.565Z,86.20
2018-03-17T01:18:25.093Z,86.30
2018-03-17T01:20:52.610Z,86.30
2018-03-17T01:23:20.133Z,86.70
2018-03-17T01:25:47.644Z,86.90
2018-03-17T01:28:15.167Z,87.10
2018-03-17T01:30:43.449Z,89.20
2018-03-17T01:33:11.739Z,90.00
2018-03-17T01:35:40.011Z,90.40
2018-03-17T01:38:07.544Z,90.40
2018-03-17T01:40:35.047Z,90.60
2018-03-17T01:43:02.595Z,90.60
2018-03-17T01:45:30.109Z,90.50
2018-03-17T01:47:58.405Z,90.60
2018-03-17T01:50:26.681Z,90.50
2018-03-17T01:52:54.967Z,90.50
2018-03-17T01:55:23.248Z,91.10
2018-03-17T01:57:50.782Z,90.80
2018-03-17T02:00:18.287Z,90.90
2018-03-17T02:02:45.820Z,91.30
2018-03-17T02:05:13.323Z,91.80
2018-03-17T02:07:40.856Z,92.10
2018-03-17T02:10:08.375Z,92.70
2018-03-17T02:12:35.896Z,93.00
2018-03-17T02:15:03.424Z,93.20
2018-03-17T02:17:30.935Z,93.40
2018-03-17T02:19:58.466Z,93.40
2018-03-17T02:22:25.983Z,93.30
2018-03-17T02:24:53.521Z,93.60
2018-03-17T02:27:21.790Z,93.70
2018-03-17T02:29:49.400Z,93.60
2018-03-17T02:32:16.913Z,93.70
2018-03-17T02:34:44.555Z,93.60
2018-03-17T02:37:12.124Z,93.60
2018-03-17T02:39:39.652Z,93.50
2018-03-17T02:42:07.170Z,93.40
2018-03-17T02:44:34.698Z,93.50
2018-03-17T02:47:02.218Z,93.40
2018-03-17T02:49:29.788Z,93.40
2018-03-17T02:51:57.304Z,93.70
2018-03-17T02:54:24.923Z,93.30
2018-03-17T02:56:52.435Z,93.30
2018-03-17T02:59:20.184Z,93.30
2018-03-17T03:01:47.707Z,93.30
2018-03-17T03:04:16.024Z,93.70
2018-03-17T03:06:44.302Z,93.90
2018-03-17T03:09:12.568Z,94.00
2018-03-17T03:11:40.101Z,94.00
2018-03-17T03:14:07.609Z,93.80
2018-03-17T03:16:35.226Z,93.80
2018-03-17T03:19:02.739Z,93.60
2018-03-17T03:21:30.278Z,93.90
2018-03-17T03:23:57.805Z,93.90
2018-03-17T03:26:25.337Z,94.10
2018-03-17T03:28:52.857Z,94.40
2018-03-17T03:31:20.730Z,94.40
2018-03-17T03:33:48.240Z,94.10
2018-03-17T03:36:15.763Z,94.40
2018-03-17T03:38:43.281Z,94.40
2018-03-17T03:41:10.803Z,94.60
2018-03-17T03:43:38.313Z,94.30
2018-03-17T03:46:06.602Z,94.30
2018-03-17T03:48:34.117Z,94.30
2018-03-17T03:51:01.639Z,94.20
2018-03-17T03:53:29.911Z,94.10
2018-03-17T03:55:57.454Z,94.10
2018-03-17T03:58:24.964Z,94.10
2018-03-17T04:00:53.284Z,93.80
2018-03-17T04:03:20.796Z,93.80
2018-03-17T04:05:48.331Z,93.70
2018-03-17T04:08:15.835Z,93.50
2018-03-17T04:10:43.382Z,93.30
2018-03-17T04:13:10.910Z,93.50
2018-03-17T04:15:39.229Z,93.60
2018-03-17T04:18:06.750Z,93.50
2018-03-17T04:20:34.278Z,93.70
2018-03-17T04:23:01.799Z,93.60
2018-03-17T04:25:29.413Z,93.70
2018-03-17T04:27:56.926Z,93.50
2018-03-17T04:30:24.448Z,93.40
2018-03-17T04:32:51.985Z,93.50
2018-03-17T04:35:19.505Z,93.50
2018-03-17T04:37:47.035Z,93.30
2018-03-17T04:40:14.549Z,93.30
2018-03-17T04:42:42.085Z,93.30
2018-03-17T04:45:10.354Z,93.30
2018-03-17T04:47:37.883Z,93.30
2018-03-17T04:50:05.410Z,93.10
2018-03-17T04:52:32.945Z,93.00
2018-03-17T04:55:00.475Z,93.50
2018-03-17T04:57:28.739Z,93.10
2018-03-17T04:59:56.266Z,93.00
2018-03-17T05:02:23.772Z,92.90
2018-03-17T05:04:51.301Z,92.80
2018-03-17T05:07:18.821Z,92.80
2018-03-17T05:09:46.428Z,92.80
2018-03-17T05:12:13.936Z,92.90
2018-03-17T05:14:41.478Z,92.80
2018-03-17T05:17:08.986Z,92.80
2018-03-17T05:19:36.530Z,92.70
2018-03-17T05:22:04.049Z,92.80
2018-03-17T05:24:31.581Z,92.90
2018-03-17T05:26:59.104Z,92.90
2018-03-17T05:29:26.607Z,92.90
2018-03-17T05:31:54.183Z,93.00
2018-03-17T05:34:21.699Z,92.80
2018-03-17T05:36:49.244Z,92.60
2018-03-17T05:39:16.748Z,92.70
2018-03-17T05:41:44.261Z,92.70
2018-03-17T05:44:11.809Z,92.60
2018-03-17T05:46:40.077Z,92.40
2018-03-17T05:49:07.617Z,92.40
2018-03-17T05:51:35.120Z,92.30
2018-03-17T05:54:02.657Z,92.30
2018-03-17T05:56:30.174Z,92.20
2018-03-17T05:58:57.699Z,92.20
2018-03-17T06:01:25.212Z,91.90
2018-03-17T06:03:52.744Z,91.70
2018-03-17T06:06:20.259Z,91.70
2018-03-17T06:08:47.788Z,91.80
2018-03-17T06:11:15.297Z,91.50
2018-03-17T06:13:42.833Z,91.70
2018-03-17T06:16:10.382Z,91.70
2018-03-17T06:18:37.921Z,91.80
2018-03-17T06:21:06.204Z,92.10
2018-03-17T06:23:33.735Z,91.70
2018-03-17T06:26:01.241Z,91.60
2018-03-17T06:28:28.785Z,91.60
2018-03-17T06:30:56.295Z,91.70
2018-03-17T06:33:24.614Z,91.60
2018-03-17T06:35:54.595Z,91.60
2018-03-17T06:38:22.135Z,91.50
2018-03-17T06:40:49.699Z,91.30
2018-03-17T06:43:17.242Z,91.30
2018-03-17T06:45:45.549Z,91.10
2018-03-17T06:48:13.088Z,91.10
2018-03-17T06:50:40.606Z,91.30
2018-03-17T06:53:08.136Z,91.30
2018-03-17T06:55:36.427Z,91.40
2018-03-17T06:58:04.709Z,91.20
2018-03-17T07:00:32.257Z,91.20
2018-03-17T07:02:59.761Z,91.20
2018-03-17T07:05:28.066Z,91.20
2018-03-17T07:07:55.576Z,91.20
2018-03-17T07:10:23.112Z,90.70
2018-03-17T07:12:50.614Z,90.70
2018-03-17T07:15:18.156Z,90.70
2018-03-17T07:17:45.673Z,90.50
2018-03-17T07:20:13.200Z,90.60
2018-03-17T07:22:40.699Z,90.60
2018-03-17T07:25:08.228Z,90.40
2018-03-17T07:27:36.542Z,90.40
2018-03-17T07:30:04.070Z,90.40
2018-03-17T07:32:31.587Z,90.30
2018-03-17T07:34:59.112Z,90.30
2018-03-17T07:37:26.622Z,90.40
2018-03-17T07:39:54.156Z,90.60
2018-03-17T07:42:21.661Z,90.30
2018-03-17T07:44:49.192Z,90.40
2018-03-17T07:47:16.711Z,90.30
2018-03-17T07:49:45.096Z,90.30
2018-03-17T07:52:12.595Z,90.30
2018-03-17T07:54:40.115Z,90.30
2018-03-17T07:57:08.913Z,90.40
2018-03-17T07:59:36.583Z,90.10
2018-03-17T08:02:04.121Z,89.90
2018-03-17T08:04:31.662Z,89.20
2018-03-17T08:06:59.186Z,89.60
2018-03-17T08:09:26.693Z,89.60
2018-03-17T08:11:54.988Z,87.90
2018-03-17T08:14:22.524Z,87.90
2018-03-17T08:16:50.059Z,87.50
2018-03-17T08:19:17.789Z,87.60
2018-03-17T08:21:45.329Z,87.00
2018-03-17T08:24:12.836Z,87.10
2018-03-17T08:26:41.137Z,86.70
2018-03-17T08:29:08.648Z,86.70
2018-03-17T08:31:36.190Z,86.00
2018-03-17T08:34:03.707Z,86.30
2018-03-17T08:36:31.235Z,86.10
2018-03-17T08:38:58.762Z,86.00
2018-03-17T08:41:26.309Z,85.90
2018-03-17T08:43:53.820Z,85.60
2018-03-17T08:46:22.128Z,85.90
2018-03-17T08:48:49.659Z,85.90
2018-03-17T08:51:17.189Z,85.20
2018-03-17T08:53:44.696Z,85.00
2018-03-17T08:56:12.234Z,85.50
2018-03-17T08:58:39.751Z,84.60
2018-03-17T09:01:08.150Z,85.00
2018-03-17T09:03:35.673Z,85.40
2018-03-17T09:06:03.209Z,85.00
2018-03-17T09:08:31.504Z,84.50
2018-03-17T09:10:59.125Z,84.50
2018-03-17T09:13:26.649Z,84.20
2018-03-17T09:15:55.179Z,84.10
2018-03-17T09:18:22.736Z,84.10
2018-03-17T09:20:50.260Z,83.90
2018-03-17T09:23:17.816Z,83.90
2018-03-17T09:25:45.334Z,83.80
2018-03-17T09:28:12.880Z,83.90
2018-03-17T09:30:40.401Z,84.00
2018-03-17T09:33:07.950Z,83.90
2018-03-17T09:35:35.477Z,84.00
2018-03-17T09:38:03.012Z,84.00
2018-03-17T09:40:30.528Z,83.40
2018-03-17T09:42:58.099Z,82.70
2018-03-17T09:45:25.628Z,82.70
2018-03-17T09:47:53.156Z,82.40
2018-03-17T09:50:20.668Z,82.60
2018-03-17T09:52:48.192Z,82.90
2018-03-17T09:55:15.714Z,83.00
2018-03-17T09:57:43.255Z,82.40
2018-03-17T10:00:10.773Z,82.90
2018-03-17T10:02:39.139Z,82.90
2018-03-17T10:05:07.469Z,82.80
2018-03-17T10:07:34.988Z,82.80
2018-03-17T10:10:02.526Z,82.70
2018-03-17T10:12:30.063Z,83.20
2018-03-17T10:14:58.369Z,83.10
2018-03-17T10:17:25.893Z,83.10
2018-03-17T10:19:53.433Z,82.80
2018-03-17T10:22:20.973Z,83.00
2018-03-17T10:24:50.167Z,82.40
2018-03-17T10:27:17.681Z,82.40
2018-03-17T10:29:45.237Z,82.40
2018-03-17T10:32:12.744Z,82.20
2018-03-17T10:34:40.280Z,81.60
2018-03-17T10:37:07.785Z,81.70
2018-03-17T10:39:35.320Z,81.50
2018-03-17T10:42:03.752Z,81.40
2018-03-17T10:44:31.279Z,80.90
2018-03-17T10:46:59.602Z,80.50
2018-03-17T10:49:27.145Z,80.60
2018-03-17T10:51:54.653Z,80.30
2018-03-17T10:54:22.183Z,80.40
2018-03-17T10:56:50.454Z,79.70
2018-03-17T10:59:18.023Z,79.70
2018-03-17T11:01:45.536Z,79.40
2018-03-17T11:04:13.044Z,79.80
2018-03-17T11:06:40.568Z,79.00
2018-03-17T11:09:08.148Z,78.70
2018-03-17T11:11:35.731Z,79.10
2018-03-17T11:14:03.976Z,79.10
2018-03-17T11:16:32.271Z,79.50
2018-03-17T11:19:00.565Z,79.50
2018-03-17T11:21:28.861Z,79.50
2018-03-17T11:23:57.129Z,80.00
2018-03-17T11:26:24.670Z,79.80
2018-03-17T11:28:52.213Z,80.80
2018-03-17T11:31:19.744Z,80.00
2018-03-17T11:33:48.079Z,79.70
2018-03-17T11:36:16.357Z,79.50
2018-03-17T11:38:43.875Z,79.50
2018-03-17T11:41:11.419Z,79.60
2018-03-17T11:43:38.933Z,79.40
2018-03-17T11:46:06.498Z,79.20
2018-03-17T11:48:34.004Z,79.10
2018-03-17T11:51:01.533Z,78.80
2018-03-17T11:53:29.812Z,78.90
2018-03-17T11:55:57.341Z,78.80
2018-03-17T11:58:24.885Z,78.70
2018-03-17T12:00:52.486Z,78.60
2018-03-17T12:03:20.004Z,78.40
2018-03-17T12:05:47.555Z,78.80
2018-03-17T12:08:15.105Z,78.80
2018-03-17T12:10:42.613Z,78.60
2018-03-17T12:13:10.149Z,78.30
2018-03-17T12:15:37.673Z,78.40
2018-03-17T12:18:05.229Z,78.50
2018-03-17T12:20:32.900Z,78.50
2018-03-17T12:23:00.442Z,78.00
2018-03-17T12:25:27.972Z,77.90
2018-03-17T12:27:55.525Z,77.60
2018-03-17T12:30:23.044Z,77.60
2018-03-17T12:32:50.596Z,76.90
2018-03-17T12:35:18.924Z,77.70
2018-03-17T12:37:46.492Z,77.60
2018-03-17T12:40:14.057Z,77.60
2018-03-17T12:42:41.598Z,77.90
2018-03-17T12:45:09.130Z,77.90
2018-03-17T12:47:36.707Z,77.60
2018-03-17T12:50:04.229Z,77.50
2018-03-17T12:52:32.532Z,78.00
2018-03-17T12:55:00.052Z,78.00
2018-03-17T12:57:27.588Z,78.50
2018-03-17T12:59:55.153Z,77.80
2018-03-17T13:02:23.119Z,77.70
2018-03-17T13:07:32.981Z,77.90
2018-03-17T13:10:01.281Z,77.90
2018-03-17T13:12:29.230Z,77.90
2018-03-17T13:14:56.761Z,77.90
2018-03-17T13:17:24.419Z,77.40
2018-03-17T13:19:52.731Z,78.10
2018-03-17T13:22:20.284Z,78.00
2018-03-17T13:24:48.605Z,77.40
2018-03-17T13:27:30.293Z,77.40
2018-03-17T13:29:57.850Z,77.20
2018-03-17T13:32:37.791Z,77.60
2018-03-17T13:35:05.343Z,77.60
2018-03-17T13:37:37.809Z,78.10
2018-03-17T13:40:17.267Z,77.60
2018-03-17T13:42:44.822Z,77.40
2018-03-17T13:45:13.254Z,78.00
2018-03-17T13:47:41.592Z,77.90
2018-03-17T13:50:09.915Z,77.50
2018-03-17T13:52:37.429Z,77.40
2018-03-17T13:55:04.976Z,77.90
2018-03-17T13:57:32.502Z,77.90
2018-03-17T14:00:00.058Z,77.60
2018-03-17T14:02:28.337Z,77.10
2018-03-17T14:04:55.958Z,77.00
2018-03-17T14:07:23.620Z,77.60
2018-03-17T14:09:51.496Z,78.20
2018-03-17T14:12:19.026Z,78.20
2018-03-17T14:14:46.565Z,78.10
2018-03-17T14:17:14.108Z,77.90
2018-03-17T14:19:41.665Z,77.80
2018-03-17T14:22:09.968Z,78.00
2018-03-17T14:24:37.536Z,78.00
2018-03-17T14:27:05.826Z,77.90
2018-03-17T14:29:34.143Z,77.80
2018-03-17T14:32:01.670Z,77.80
2018-03-17T14:34:29.209Z,78.10
2018-03-17T14:36:56.729Z,78.00
2018-03-17T14:39:25.041Z,78.30
2018-03-17T14:41:52.616Z,78.30
2018-03-17T14:44:20.135Z,78.40
2018-03-17T14:46:47.690Z,78.10
2018-03-17T14:49:15.209Z,78.50
2018-03-17T14:51:43.531Z,78.40
2018-03-17T14:54:11.054Z,78.40
2018-03-17T14:56:38.615Z,77.80
2018-03-17T14:59:06.163Z,77.70
2018-03-17T15:01:33.802Z,77.10
2018-03-17T15:04:01.383Z,77.70
2018-03-17T15:06:28.939Z,78.00
2018-03-17T15:08:56.589Z,77.70
2018-03-17T15:11:24.908Z,78.00
2018-03-17T15:13:52.437Z,77.70
2018-03-17T15:16:19.966Z,77.80
2018-03-17T15:18:47.500Z,77.70
2018-03-17T15:21:15.820Z,78.00
2018-03-17T15:26:28.661Z,77.10
2018-03-17T15:28:56.955Z,77.50
2018-03-17T15:31:25.253Z,77.70
2018-03-17T15:33:52.796Z,77.70
2018-03-17T15:36:21.101Z,77.70
2018-03-17T15:38:49.405Z,77.80
2018-03-17T15:41:16.937Z,77.80
2018-03-17T15:43:44.467Z,77.50
2018-03-17T15:46:12.050Z,77.20
2018-03-17T15:48:39.543Z,77.20
2018-03-17T15:51:07.105Z,77.10
2018-03-17T15:53:34.640Z,77.20
2018-03-17T15:56:02.170Z,77.10
2018-03-17T15:58:29.711Z,77.30
2018-03-17T16:00:57.244Z,76.80
2018-03-17T16:03:24.800Z,76.70
2018-03-17T16:05:52.376Z,76.80
2018-03-17T16:08:20.687Z,76.50
2018-03-17T16:10:48.216Z,76.50
2018-03-17T16:13:15.757Z,76.70
2018-03-17T16:15:43.274Z,76.80
2018-03-17T16:18:10.872Z,76.20
2018-03-17T16:20:38.429Z,76.20
2018-03-17T16:23:05.986Z,76.40
2018-03-17T16:25:33.511Z,76.00
2018-03-17T16:28:01.045Z,76.50
2018-03-17T16:30:29.343Z,76.60
2018-03-17T16:32:56.892Z,76.50
2018-03-17T16:35:24.439Z,76.70
2018-03-17T16:37:51.974Z,76.40
2018-03-17T16:40:19.495Z,76.70
2018-03-17T16:42:47.121Z,77.60
2018-03-17T16:45:14.650Z,76.00
2018-03-17T16:47:42.192Z,75.80
2018-03-17T16:50:09.832Z,76.10
2018-03-17T16:52:37.371Z,75.80
2018-03-17T16:55:04.891Z,75.60
2018-03-17T16:57:32.425Z,75.60
2018-03-17T17:00:00.709Z,75.80
2018-03-17T17:02:29.009Z,75.20
2018-03-17T17:04:57.304Z,75.20
2018-03-17T17:07:24.839Z,75.20
2018-03-17T17:09:52.376Z,75.30
2018-03-17T17:12:19.918Z,75.20
2018-03-17T17:14:47.463Z,75.20
2018-03-17T17:17:15.783Z,75.10
2018-03-17T17:19:44.084Z,75.20
2018-03-17T17:22:11.597Z,75.10
2018-03-17T17:24:39.164Z,75.10
2018-03-17T17:27:06.714Z,75.20
2018-03-17T17:29:34.275Z,75.20
2018-03-17T17:32:01.789Z,75.20
2018-03-17T17:34:29.326Z,75.10
2018-03-17T17:36:56.843Z,75.20
2018-03-17T17:39:24.473Z,75.50
2018-03-17T17:41:52.003Z,75.00
2018-03-17T17:44:20.319Z,75.00
2018-03-17T17:46:47.851Z,75.00
2018-03-17T17:49:15.420Z,74.90
2018-03-17T17:51:42.952Z,74.40
2018-03-17T17:54:10.519Z,75.00
2018-03-17T17:56:38.151Z,75.00
2018-03-17T17:59:05.690Z,74.90
2018-03-17T18:01:34.011Z,75.60
2018-03-17T18:04:02.352Z,75.50
2018-03-17T18:06:29.880Z,75.50
2018-03-17T18:08:58.209Z,75.40
2018-03-17T18:11:25.742Z,75.40
2018-03-17T18:13:54.086Z,74.70
2018-03-17T18:16:21.630Z,74.70
2018-03-17T18:18:50.091Z,75.00
2018-03-17T18:21:17.699Z,74.70
2018-03-17T18:23:45.989Z,75.10
2018-03-17T18:26:13.540Z,75.10
2018-03-17T18:28:41.838Z,75.10
2018-03-17T18:31:09.424Z,75.10
2018-03-17T18:33:36.959Z,75.00
2018-03-17T18:36:04.516Z,75.10
2018-03-17T18:38:32.039Z,74.50
2018-03-17T18:40:59.702Z,75.30
2018-03-17T18:43:27.532Z,75.30
2018-03-17T18:45:55.082Z,75.80
2018-03-17T18:48:26.338Z,75.60
2018-03-17T18:50:53.891Z,75.30
2018-03-17T18:53:21.419Z,75.10
2018-03-17T18:55:48.980Z,75.50
2018-03-17T18:58:16.503Z,75.40
2018-03-17T19:00:44.047Z,75.40
2018-03-17T19:03:11.575Z,75.40
2018-03-17T19:05:39.312Z,75.60
2018-03-17T19:08:07.168Z,75.70
2018-03-17T19:10:34.714Z,75.60
2018-03-17T19:13:02.239Z,75.60
2018-03-17T19:15:30.563Z,75.80
2018-03-17T19:17:58.100Z,75.80
2018-03-17T19:20:26.539Z,75.80
2018-03-17T19:22:54.094Z,75.80
2018-03-17T19:25:21.639Z,76.00
2018-03-17T19:27:49.179Z,76.00
2018-03-17T19:30:16.734Z,75.80
2018-03-17T19:32:45.030Z,75.70
2018-03-17T19:35:12.560Z,75.70
2018-03-17T19:37:40.110Z,75.90
2018-03-17T19:40:08.414Z,76.10
2018-03-17T19:42:35.986Z,76.10
2018-03-17T19:45:03.568Z,76.00
2018-03-17T19:47:31.122Z,75.80
2018-03-17T19:49:59.424Z,75.90
2018-03-17T19:52:26.986Z,75.80
2018-03-17T19:54:55.314Z,75.90
2018-03-17T19:57:22.877Z,75.90
2018-03-17T19:59:50.434Z,75.60
2018-03-17T20:02:17.986Z,76.00
2018-03-17T20:04:46.274Z,75.90
2018-03-17T20:07:14.591Z,75.80
2018-03-17T20:09:42.123Z,75.70
2018-03-17T20:12:09.698Z,75.90
2018-03-17T20:14:37.221Z,76.10
2018-03-17T20:17:04.762Z,76.00
2018-03-17T20:19:32.295Z,76.00
2018-03-17T20:21:59.835Z,75.80
2018-03-17T20:24:27.368Z,75.90
2018-03-17T20:26:55.684Z,76.00
2018-03-17T20:29:23.226Z,76.00
2018-03-17T20:31:51.548Z,76.10
2018-03-17T20:34:19.112Z,76.10
2018-03-17T20:36:46.850Z,76.20
2018-03-17T20:39:17.101Z,76.70
2018-03-17T20:41:45.430Z,76.30
2018-03-17T20:44:13.209Z,76.30
2018-03-17T20:46:41.076Z,76.20
2018-03-17T20:49:08.748Z,76.40
2018-03-17T20:51:36.283Z,76.40
2018-03-17T20:54:03.827Z,76.90
2018-03-17T20:56:31.351Z,76.80
2018-03-17T20:58:58.916Z,76.80
2018-03-17T21:01:27.211Z,77.30
2018-03-17T21:03:54.777Z,77.30
2018-03-17T21:06:23.076Z,77.60
2018-03-17T21:08:51.394Z,78.00
2018-03-17T21:11:18.926Z,78.00
2018-03-17T21:13:47.257Z,79.80
2018-03-17T21:16:14.798Z,79.70
2018-03-17T21:18:42.359Z,80.30
2018-03-17T21:21:10.754Z,80.90
2018-03-17T21:23:38.318Z,80.90
2018-03-17T21:26:06.616Z,82.20
2018-03-17T21:28:34.927Z,82.00
2018-03-17T21:33:33.641Z,82.10
2018-03-17T21:36:01.208Z,82.70
2018-03-17T21:38:28.783Z,82.40
2018-03-17T21:40:56.390Z,84.20
2018-03-17T21:43:23.952Z,84.00
2018-03-17T21:45:51.499Z,84.50
2018-03-17T21:51:39.927Z,86.40
2018-03-17T21:57:09.440Z,87.70
2018-03-17T21:59:49.883Z,88.00
2018-03-17T22:02:23.526Z,89.60
2018-03-17T22:04:57.419Z,90.20
2018-03-17T22:07:41.686Z,90.20
2018-03-17T22:10:18.485Z,90.60
2018-03-17T22:12:55.781Z,90.60
2018-03-17T22:18:22.271Z,90.50
2018-03-17T22:20:54.410Z,90.10
2018-03-17T22:23:39.268Z,90.50
2018-03-17T22:26:14.425Z,90.90
2018-03-17T22:31:24.037Z,90.60
2018-03-17T22:36:43.119Z,90.90
2018-03-17T22:39:19.326Z,91.20
2018-03-17T22:41:50.681Z,91.10
2018-03-17T22:44:19.569Z,91.20
2018-03-17T22:46:51.542Z,91.10
2018-03-17T22:52:06.609Z,91.60
2018-03-17T22:54:39.660Z,91.30
2018-03-17T22:57:13.596Z,92.00
2018-03-17T23:00:05.311Z,92.00
2018-03-17T23:02:39.982Z,92.00
2018-03-17T23:05:21.645Z,91.90
2018-03-17T23:07:50.360Z,91.80
2018-03-17T23:10:28.623Z,91.70
2018-03-17T23:13:11.736Z,91.70
2018-03-17T23:15:45.729Z,91.70
2018-03-17T23:18:29.246Z,92.00
2018-03-17T23:21:09.307Z,91.90
2018-03-17T23:23:42.994Z,92.00
2018-03-17T23:26:10.838Z,92.00
2018-03-17T23:28:48.134Z,92.00
2018-03-17T23:31:22.449Z,92.00
2018-03-17T23:34:08.590Z,92.00
2018-03-17T23:36:44.353Z,92.00
2018-03-17T23:39:12.201Z,92.00
2018-03-17T23:44:19.194Z,92.00
2018-03-17T23:46:52.269Z,92.00
2018-03-17T23:49:21.520Z,92.00
2018-03-17T23:51:56.235Z,92.20
2018-03-17T23:54:30.739Z,92.20
2018-03-17T23:56:59.153Z,92.00
2018-03-17T23:59:30.180Z,92.00
